createdAt,value
2023-03-06T00:00:16.067Z,1.08
2023-03-06T00:03:03.181Z,1.05
2023-03-06T00:05:29.683Z,1.01
2023-03-06T00:07:56.388Z,0.99
2023-03-06T00:10:25.590Z,0.95
2023-03-06T00:12:57.912Z,0.94
2023-03-06T00:15:25.878Z,0.93
2023-03-06T00:17:52.885Z,0.94
2023-03-06T00:20:19.359Z,0.96
2023-03-06T00:22:49.056Z,0.97
2023-03-06T00:25:18.493Z,0.96
2023-03-06T00:27:45.374Z,0.95
2023-03-06T00:30:14.637Z,0.93
2023-03-06T00:32:41.502Z,0.91
2023-03-06T00:35:08.745Z,0.87
2023-03-06T00:37:35.506Z,0.85
2023-03-06T00:40:09.014Z,0.83
2023-03-06T00:42:35.468Z,0.81
2023-03-06T00:45:01.928Z,0.84
2023-03-06T00:47:28.546Z,0.86
2023-03-06T00:49:55.035Z,0.89
2023-03-06T00:52:23.125Z,0.90
2023-03-06T00:54:49.866Z,0.92
2023-03-06T00:57:16.188Z,0.91
2023-03-06T00:59:42.752Z,0.91
2023-03-06T01:02:10.057Z,0.88
2023-03-06T01:04:36.594Z,0.84
2023-03-06T01:07:02.998Z,0.79
2023-03-06T01:09:29.787Z,0.76
2023-03-06T01:11:56.519Z,0.75
2023-03-06T01:14:23.657Z,0.76
2023-03-06T01:16:50.452Z,0.78
2023-03-06T01:19:17.329Z,0.80
2023-03-06T01:21:43.774Z,0.81
2023-03-06T01:24:10.309Z,0.80
2023-03-06T01:26:36.962Z,0.79
2023-03-06T01:29:03.637Z,0.77
2023-03-06T01:31:30.385Z,0.76
2023-03-06T01:33:56.875Z,0.72
2023-03-06T01:36:23.643Z,0.70
2023-03-06T01:38:50.251Z,0.69
2023-03-06T01:41:16.792Z,0.70
2023-03-06T01:43:45.230Z,0.74
2023-03-06T01:46:41.537Z,0.78
2023-03-06T01:49:14.095Z,0.82
2023-03-06T01:51:45.549Z,0.83
2023-03-06T01:54:15.805Z,0.85
2023-03-06T01:56:44.671Z,0.86
2023-03-06T01:59:11.792Z,0.83
2023-03-06T02:01:39.483Z,0.83
2023-03-06T02:04:09.373Z,0.85
2023-03-06T02:06:38.537Z,0.87
2023-03-06T02:09:05.710Z,0.91
2023-03-06T02:11:32.376Z,0.95
2023-03-06T02:13:59.338Z,0.97
2023-03-06T02:16:28.390Z,0.98
2023-03-06T02:18:55.357Z,0.97
2023-03-06T02:21:25.407Z,0.97
2023-03-06T02:24:33.514Z,0.95
2023-03-06T02:27:01.641Z,0.92
2023-03-06T02:29:29.567Z,0.94
2023-03-06T02:31:56.059Z,0.96
2023-03-06T02:34:22.686Z,0.96
2023-03-06T02:36:59.084Z,0.97
2023-03-06T02:39:28.015Z,1.00
2023-03-06T02:41:54.647Z,0.99
2023-03-06T02:44:22.859Z,0.99
2023-03-06T02:46:49.516Z,0.96
2023-03-06T02:49:16.002Z,0.94
2023-03-06T02:51:42.627Z,0.95
2023-03-06T02:54:10.569Z,0.97
2023-03-06T02:56:37.339Z,0.99
2023-03-06T02:59:03.688Z,1.02
2023-03-06T03:01:30.369Z,1.03
2023-03-06T03:03:59.475Z,1.04
2023-03-06T03:06:28.596Z,1.03
2023-03-06T03:08:55.235Z,1.03
2023-03-06T03:11:21.760Z,1.02
2023-03-06T03:13:48.410Z,1.00
2023-03-06T03:16:15.670Z,0.99
2023-03-06T03:18:47.361Z,0.98
2023-03-06T03:21:14.358Z,1.01
2023-03-06T03:23:41.056Z,1.02
2023-03-06T03:26:12.251Z,1.03
2023-03-06T03:28:38.970Z,1.04
2023-03-06T03:31:08.240Z,1.05
2023-03-06T03:33:34.922Z,1.03
2023-03-06T03:36:03.669Z,1.00
2023-03-06T03:38:31.007Z,1.01
2023-03-06T03:40:57.606Z,1.02
2023-03-06T03:43:24.085Z,1.05
2023-03-06T03:45:52.884Z,1.07
2023-03-06T03:48:19.756Z,1.08
2023-03-06T03:50:46.250Z,1.09
2023-03-06T03:53:12.844Z,1.07
2023-03-06T03:55:39.436Z,1.05
2023-03-06T03:58:06.016Z,1.06
2023-03-06T04:00:32.798Z,1.04
2023-03-06T04:02:59.354Z,1.04
2023-03-06T04:05:25.962Z,1.05
2023-03-06T04:07:52.577Z,1.08
2023-03-06T04:10:18.981Z,1.11
2023-03-06T04:12:45.601Z,1.11
2023-03-06T04:15:12.330Z,1.08
2023-03-06T04:17:38.676Z,1.05
2023-03-06T04:20:05.614Z,1.04
2023-03-06T04:22:32.275Z,1.04
2023-03-06T04:24:59.113Z,1.04
2023-03-06T04:27:25.638Z,1.03
2023-03-06T04:29:55.707Z,1.03
2023-03-06T04:32:23.391Z,1.07
2023-03-06T04:34:49.997Z,1.10
2023-03-06T04:37:20.480Z,1.11
2023-03-06T04:39:47.175Z,1.12
2023-03-06T04:42:13.861Z,1.12
2023-03-06T04:44:40.589Z,1.11
2023-03-06T04:47:07.034Z,1.08
2023-03-06T04:49:33.595Z,1.06
2023-03-06T04:52:00.680Z,1.10
2023-03-06T04:54:27.266Z,1.12
2023-03-06T04:56:53.775Z,1.16
2023-03-06T04:59:20.319Z,1.19
2023-03-06T05:01:46.937Z,1.21
2023-03-06T05:04:13.588Z,1.23
2023-03-06T05:06:40.421Z,1.23
2023-03-06T05:09:06.980Z,1.23
2023-03-06T05:11:33.512Z,1.21
2023-03-06T05:14:00.178Z,1.18
2023-03-06T05:16:26.886Z,1.19
2023-03-06T05:18:53.250Z,1.19
2023-03-06T05:21:20.087Z,1.22
2023-03-06T05:23:47.111Z,1.26
2023-03-06T05:26:14.292Z,1.30
2023-03-06T05:28:41.262Z,1.33
2023-03-06T05:31:07.608Z,1.34
2023-03-06T05:33:35.358Z,1.35
2023-03-06T05:36:02.855Z,1.34
2023-03-06T05:38:29.449Z,1.32
2023-03-06T05:40:55.969Z,1.30
2023-03-06T05:43:22.494Z,1.25
2023-03-06T05:45:49.998Z,1.34
2023-03-06T05:48:16.424Z,1.37
2023-03-06T05:50:43.166Z,1.39
2023-03-06T05:53:09.770Z,1.42
2023-03-06T05:55:36.259Z,1.43
2023-03-06T05:58:02.989Z,1.43
2023-03-06T06:00:29.580Z,1.42
2023-03-06T06:02:56.049Z,1.41
2023-03-06T06:05:22.658Z,1.36
2023-03-06T06:07:49.119Z,1.44
2023-03-06T06:10:17.118Z,1.48
2023-03-06T06:12:43.928Z,1.52
2023-03-06T06:15:10.582Z,1.53
2023-03-06T06:17:37.046Z,1.53
2023-03-06T06:20:04.509Z,1.53
2023-03-06T06:22:31.251Z,1.55
2023-03-06T06:24:57.858Z,1.55
2023-03-06T06:27:24.720Z,1.55
2023-03-06T06:29:54.936Z,1.56
2023-03-06T06:32:21.448Z,1.59
2023-03-06T06:34:48.008Z,1.63
2023-03-06T06:37:14.477Z,1.66
2023-03-06T06:39:40.855Z,1.69
2023-03-06T06:42:28.926Z,1.72
2023-03-06T06:44:56.036Z,1.74
2023-03-06T06:47:41.851Z,1.76
2023-03-06T06:50:12.952Z,1.75
2023-03-06T06:52:39.731Z,1.73
2023-03-06T06:55:06.732Z,1.74
2023-03-06T06:57:33.176Z,1.77
2023-03-06T06:59:59.846Z,1.80
2023-03-06T07:02:26.520Z,1.83
2023-03-06T07:05:03.592Z,1.84
2023-03-06T07:07:34.020Z,1.87
2023-03-06T07:10:00.687Z,1.89
2023-03-06T07:12:27.260Z,1.90
2023-03-06T07:14:53.877Z,1.91
2023-03-06T07:17:20.655Z,1.91
2023-03-06T07:19:47.643Z,1.91
2023-03-06T07:22:14.055Z,1.91
2023-03-06T07:24:40.568Z,1.95
2023-03-06T07:27:07.002Z,1.99
2023-03-06T07:29:34.147Z,2.04
2023-03-06T07:32:01.370Z,2.09
2023-03-06T07:34:27.945Z,2.11
2023-03-06T07:36:54.537Z,2.13
2023-03-06T07:39:21.112Z,2.14
2023-03-06T07:41:47.725Z,2.13
2023-03-06T07:44:14.219Z,2.07
2023-03-06T07:46:41.071Z,2.09
2023-03-06T07:49:07.555Z,2.08
2023-03-06T07:51:34.178Z,2.08
2023-03-06T07:54:00.952Z,2.11
2023-03-06T07:56:27.413Z,2.16
2023-03-06T07:58:55.971Z,2.20
2023-03-06T08:01:25.842Z,2.24
2023-03-06T08:03:53.157Z,2.25
2023-03-06T08:06:22.580Z,2.26
2023-03-06T08:08:50.278Z,2.28
2023-03-06T08:11:18.983Z,2.28
2023-03-06T08:13:47.906Z,2.27
2023-03-06T08:16:16.860Z,2.29
2023-03-06T08:18:45.850Z,2.28
2023-03-06T08:21:15.850Z,2.31
2023-03-06T08:23:42.796Z,2.35
2023-03-06T08:26:15.951Z,2.39
2023-03-06T08:28:42.666Z,2.43
2023-03-06T08:31:33.800Z,2.47
2023-03-06T08:34:02.880Z,2.50
2023-03-06T08:36:29.322Z,2.53
2023-03-06T08:38:56.284Z,2.53
2023-03-06T08:41:23.835Z,2.55
2023-03-06T08:43:50.861Z,2.58
2023-03-06T08:46:18.300Z,2.58
2023-03-06T08:48:47.323Z,2.58
2023-03-06T08:51:14.535Z,2.58
2023-03-06T08:53:43.434Z,2.62
2023-03-06T08:56:19.159Z,2.69
2023-03-06T08:58:46.416Z,2.75
2023-03-06T09:01:21.195Z,2.79
2023-03-06T09:03:48.456Z,2.83
2023-03-06T09:06:15.549Z,2.86
2023-03-06T09:08:43.975Z,2.90
2023-03-06T09:11:11.616Z,2.92
2023-03-06T09:13:38.664Z,2.93
2023-03-06T09:16:06.616Z,2.92
2023-03-06T09:18:32.998Z,2.91
2023-03-06T09:20:59.857Z,2.89
2023-03-06T09:23:26.943Z,2.84
2023-03-06T09:25:54.919Z,2.90
2023-03-06T09:28:21.691Z,2.94
2023-03-06T09:30:48.387Z,2.98
2023-03-06T09:33:15.689Z,3.07
2023-03-06T09:35:46.098Z,3.12
2023-03-06T09:38:13.118Z,3.15
2023-03-06T09:40:59.927Z,3.17
2023-03-06T09:43:45.378Z,3.21
2023-03-06T09:46:40.056Z,3.20
2023-03-06T09:49:21.160Z,3.21
2023-03-06T09:51:54.140Z,3.20
2023-03-06T09:54:22.846Z,3.22
2023-03-06T09:56:50.283Z,3.24
2023-03-06T09:59:22.712Z,3.26
2023-03-06T10:02:15.838Z,3.27
2023-03-06T10:04:58.768Z,3.33
2023-03-06T10:07:41.131Z,3.41
2023-03-06T10:10:22.119Z,3.50
2023-03-06T10:13:03.388Z,3.56
2023-03-06T10:15:35.501Z,3.60
2023-03-06T10:18:03.454Z,3.62
2023-03-06T10:20:39.703Z,3.62
2023-03-06T10:23:28.028Z,3.64
2023-03-06T10:26:25.071Z,3.66
2023-03-06T10:29:13.493Z,3.67
2023-03-06T10:31:44.260Z,3.70
2023-03-06T10:34:18.423Z,3.73
2023-03-06T10:36:45.058Z,3.76
2023-03-06T10:39:21.176Z,3.78
2023-03-06T10:41:48.817Z,3.80
2023-03-06T10:44:15.491Z,3.82
2023-03-06T10:46:47.694Z,3.85
2023-03-06T10:49:29.784Z,3.91
2023-03-06T10:51:59.210Z,3.99
2023-03-06T10:54:26.549Z,4.04
2023-03-06T10:56:53.298Z,4.10
2023-03-06T10:59:27.590Z,4.13
2023-03-06T11:01:56.861Z,4.17
2023-03-06T11:04:27.769Z,4.21
2023-03-06T11:07:17.416Z,4.22
2023-03-06T11:10:16.565Z,4.18
2023-03-06T11:12:44.075Z,4.17
2023-03-06T11:15:13.601Z,4.16
2023-03-06T11:18:08.459Z,4.15
2023-03-06T11:20:51.990Z,4.12
2023-03-06T11:23:42.123Z,4.08
2023-03-06T11:26:17.382Z,4.06
2023-03-06T11:29:06.347Z,4.03
2023-03-06T11:31:49.231Z,3.98
2023-03-06T11:34:36.132Z,3.94
2023-03-06T11:37:24.454Z,3.92
2023-03-06T11:39:57.580Z,3.84
2023-03-06T11:42:29.821Z,3.87
2023-03-06T11:45:24.958Z,3.87
2023-03-06T11:48:01.119Z,3.87
2023-03-06T11:50:33.506Z,3.88
2023-03-06T11:53:02.247Z,3.91
2023-03-06T11:55:34.697Z,3.97
2023-03-06T11:58:32.353Z,4.05
2023-03-06T12:01:28.220Z,4.12
2023-03-06T12:04:13.876Z,4.19
2023-03-06T12:06:44.565Z,4.26
2023-03-06T12:09:14.062Z,4.29
2023-03-06T12:11:59.537Z,4.31
2023-03-06T12:14:35.820Z,4.36
2023-03-06T12:17:09.138Z,4.43
2023-03-06T12:19:35.668Z,4.45
2023-03-06T12:22:23.663Z,4.46
2023-03-06T12:25:21.402Z,4.47
2023-03-06T12:28:25.985Z,4.46
2023-03-06T12:31:17.246Z,4.43
2023-03-06T12:33:57.551Z,4.43
2023-03-06T12:37:01.883Z,4.40
2023-03-06T12:39:39.418Z,4.37
2023-03-06T12:42:23.492Z,4.34
2023-03-06T12:45:04.956Z,4.27
2023-03-06T12:47:38.274Z,4.25
2023-03-06T12:50:17.031Z,4.21
2023-03-06T12:52:43.636Z,4.18
2023-03-06T12:55:16.012Z,4.14
2023-03-06T12:57:42.984Z,4.10
2023-03-06T13:00:31.554Z,4.06
2023-03-06T13:03:09.842Z,4.02
2023-03-06T13:05:39.733Z,3.99
2023-03-06T13:08:15.491Z,3.99
2023-03-06T13:10:43.537Z,4.05
2023-03-06T13:13:28.854Z,4.09
2023-03-06T13:16:15.691Z,4.12
2023-03-06T13:18:42.332Z,4.13
2023-03-06T13:21:46.682Z,4.14
2023-03-06T13:24:35.508Z,4.10
2023-03-06T13:27:07.485Z,4.07
2023-03-06T13:29:37.043Z,4.02
2023-03-06T13:32:03.680Z,3.96
2023-03-06T13:34:36.011Z,3.89
2023-03-06T13:37:18.196Z,3.84
2023-03-06T13:39:59.854Z,3.78
2023-03-06T13:42:31.698Z,3.77
2023-03-06T13:45:23.061Z,3.77
2023-03-06T13:50:43.355Z,3.79
2023-03-06T13:53:28.239Z,3.78
2023-03-06T13:56:29.208Z,3.76
2023-03-06T13:59:02.091Z,3.72
2023-03-06T14:01:58.669Z,3.67
2023-03-06T14:04:32.162Z,3.61
2023-03-06T14:06:58.965Z,3.59
2023-03-06T14:09:33.428Z,3.60
2023-03-06T14:12:24.404Z,3.64
2023-03-06T14:14:59.199Z,3.67
2023-03-06T14:17:30.581Z,3.70
2023-03-06T14:20:01.651Z,3.73
2023-03-06T14:22:28.148Z,3.75
2023-03-06T14:25:00.740Z,3.74
2023-03-06T14:27:48.732Z,3.72
2023-03-06T14:30:18.060Z,3.71
2023-03-06T14:32:44.659Z,3.71
2023-03-06T14:35:20.346Z,3.74
2023-03-06T14:37:49.740Z,3.76
2023-03-06T14:40:41.298Z,3.81
2023-03-06T14:43:20.195Z,3.80
2023-03-06T14:45:49.685Z,3.77
2023-03-06T14:48:16.438Z,3.76
2023-03-06T14:50:47.894Z,3.75
2023-03-06T14:53:17.228Z,3.75
2023-03-06T14:55:57.210Z,3.74
2023-03-06T14:58:34.434Z,3.76
2023-03-06T15:01:06.513Z,3.79
2023-03-06T15:03:46.428Z,3.81
2023-03-06T15:06:21.786Z,3.85
2023-03-06T15:08:57.231Z,3.88
2023-03-06T15:11:23.598Z,3.90
2023-03-06T15:14:04.250Z,3.91
2023-03-06T15:16:31.022Z,3.90
2023-03-06T15:19:02.489Z,3.88
2023-03-06T15:21:36.016Z,3.86
2023-03-06T15:24:28.439Z,3.83
2023-03-06T15:26:55.359Z,3.81
2023-03-06T15:32:33.603Z,3.80
2023-03-06T15:35:26.861Z,3.83
2023-03-06T15:37:53.778Z,3.86
2023-03-06T15:40:20.837Z,3.87
2023-03-06T15:42:49.517Z,3.87
2023-03-06T15:45:19.203Z,3.84
2023-03-06T15:47:48.196Z,3.84
2023-03-06T15:50:23.380Z,3.81
2023-03-06T15:52:49.981Z,3.80
2023-03-06T15:55:19.210Z,3.78
2023-03-06T15:58:08.382Z,3.75
2023-03-06T16:00:40.414Z,3.72
2023-03-06T16:03:10.459Z,3.70
2023-03-06T16:05:37.958Z,3.71
2023-03-06T16:08:05.394Z,3.72
2023-03-06T16:10:36.302Z,3.74
2023-03-06T16:13:09.157Z,3.73
2023-03-06T16:15:39.359Z,3.73
2023-03-06T16:18:06.278Z,3.72
2023-03-06T16:20:33.193Z,3.69
2023-03-06T16:22:59.761Z,3.67
2023-03-06T16:25:27.844Z,3.62
2023-03-06T16:27:59.140Z,3.57
2023-03-06T16:30:28.493Z,3.54
2023-03-06T16:32:54.920Z,3.51
2023-03-06T16:35:21.489Z,3.49
2023-03-06T16:37:48.280Z,3.49
2023-03-06T16:40:28.461Z,3.48
2023-03-06T16:42:55.372Z,3.49
2023-03-06T16:45:22.693Z,3.48
2023-03-06T16:47:49.432Z,3.46
2023-03-06T16:50:28.166Z,3.44
2023-03-06T16:52:56.028Z,3.40
2023-03-06T16:55:23.608Z,3.33
2023-03-06T16:57:50.826Z,3.30
2023-03-06T17:00:18.498Z,3.27
2023-03-06T17:02:47.742Z,3.26
2023-03-06T17:05:14.454Z,3.26
2023-03-06T17:07:41.403Z,3.27
2023-03-06T17:10:10.507Z,3.28
2023-03-06T17:12:37.427Z,3.28
2023-03-06T17:15:05.843Z,3.26
2023-03-06T17:17:32.854Z,3.25
2023-03-06T17:19:59.540Z,3.21
2023-03-06T17:22:26.670Z,3.19
2023-03-06T17:24:53.510Z,3.15
2023-03-06T17:27:21.659Z,3.10
2023-03-06T17:29:48.390Z,3.06
2023-03-06T17:32:14.953Z,3.04
2023-03-06T17:34:41.852Z,3.02
2023-03-06T17:37:08.407Z,3.00
2023-03-06T17:39:36.620Z,2.95
2023-03-06T17:42:04.353Z,2.98
2023-03-06T17:44:32.008Z,2.95
2023-03-06T17:46:58.591Z,2.91
2023-03-06T17:49:25.192Z,2.87
2023-03-06T17:51:52.252Z,2.82
2023-03-06T17:54:19.150Z,2.77
2023-03-06T17:56:46.004Z,2.73
2023-03-06T17:59:12.472Z,2.71
2023-03-06T18:01:40.467Z,2.71
2023-03-06T18:04:07.161Z,2.70
2023-03-06T18:06:33.800Z,2.68
2023-03-06T18:09:01.109Z,2.67
2023-03-06T18:11:27.811Z,2.66
2023-03-06T18:13:54.658Z,2.62
2023-03-06T18:16:23.343Z,2.59
2023-03-06T18:18:54.902Z,2.56
2023-03-06T18:21:23.494Z,2.51
2023-03-06T18:23:50.241Z,2.49
2023-03-06T18:26:17.177Z,2.51
2023-03-06T18:28:46.707Z,2.54
2023-03-06T18:31:24.042Z,2.58
2023-03-06T18:33:51.882Z,2.64
2023-03-06T18:36:19.100Z,2.69
2023-03-06T18:38:45.924Z,2.72
2023-03-06T18:41:12.919Z,2.75
2023-03-06T18:43:39.641Z,2.74
2023-03-06T18:46:06.721Z,2.73
2023-03-06T18:48:33.562Z,2.70
2023-03-06T18:51:07.964Z,2.68
2023-03-06T18:53:39.541Z,2.67
2023-03-06T18:56:09.040Z,2.64
2023-03-06T18:58:36.054Z,2.61
2023-03-06T19:01:06.697Z,2.61
2023-03-06T19:03:33.409Z,2.63
2023-03-06T19:06:03.036Z,2.66
2023-03-06T19:08:30.184Z,2.68
2023-03-06T19:11:03.073Z,2.70
2023-03-06T19:13:30.511Z,2.68
2023-03-06T19:15:57.085Z,2.70
2023-03-06T19:18:25.134Z,2.70
2023-03-06T19:20:52.689Z,2.68
2023-03-06T19:23:20.816Z,2.66
2023-03-06T19:26:06.842Z,2.63
2023-03-06T19:28:36.137Z,2.60
2023-03-06T19:31:21.166Z,2.55
2023-03-06T19:33:49.113Z,2.48
2023-03-06T19:36:16.714Z,2.53
2023-03-06T19:38:43.464Z,2.54
2023-03-06T19:41:12.886Z,2.56
2023-03-06T19:43:41.149Z,2.57
2023-03-06T19:46:12.820Z,2.56
2023-03-06T19:48:40.636Z,2.55
2023-03-06T19:51:07.384Z,2.54
2023-03-06T19:53:38.520Z,2.51
2023-03-06T19:56:13.130Z,2.47
2023-03-06T19:58:40.319Z,2.44
2023-03-06T20:01:12.573Z,2.43
2023-03-06T20:03:39.509Z,2.42
2023-03-06T20:06:08.574Z,2.44
2023-03-06T20:08:35.913Z,2.46
2023-03-06T20:11:02.515Z,2.48
2023-03-06T20:13:29.879Z,2.49
2023-03-06T20:15:57.452Z,2.47
2023-03-06T20:18:23.899Z,2.48
2023-03-06T20:21:00.879Z,2.47
2023-03-06T20:23:27.857Z,2.44
2023-03-06T20:25:54.199Z,2.43
2023-03-06T20:28:21.760Z,2.44
2023-03-06T20:30:48.228Z,2.45
2023-03-06T20:33:16.470Z,2.46
2023-03-06T20:35:43.720Z,2.47
2023-03-06T20:38:10.507Z,2.47
2023-03-06T20:40:39.341Z,2.47
2023-03-06T20:43:06.346Z,2.47
2023-03-06T20:45:33.613Z,2.45
2023-03-06T20:48:00.764Z,2.44
2023-03-06T20:50:27.586Z,2.41
2023-03-06T20:52:58.221Z,2.39
2023-03-06T20:55:24.856Z,2.36
2023-03-06T20:57:51.753Z,2.36
2023-03-06T21:00:18.481Z,2.36
2023-03-06T21:02:44.920Z,2.37
2023-03-06T21:05:12.406Z,2.35
2023-03-06T21:07:39.010Z,2.34
2023-03-06T21:10:06.132Z,2.33
2023-03-06T21:12:32.757Z,2.31
2023-03-06T21:14:59.422Z,2.27
2023-03-06T21:17:29.549Z,2.24
2023-03-06T21:19:57.004Z,2.22
2023-03-06T21:22:23.792Z,2.22
2023-03-06T21:24:50.269Z,2.23
2023-03-06T21:27:16.672Z,2.25
2023-03-06T21:29:43.945Z,2.25
2023-03-06T21:32:10.679Z,2.27
2023-03-06T21:34:37.184Z,2.27
2023-03-06T21:37:03.997Z,2.26
2023-03-06T21:39:30.484Z,2.25
2023-03-06T21:41:57.348Z,2.21
2023-03-06T21:44:23.795Z,2.22
2023-03-06T21:46:50.166Z,2.20
2023-03-06T21:49:17.850Z,2.18
2023-03-06T21:51:44.312Z,2.18
2023-03-06T21:54:12.630Z,2.19
2023-03-06T21:56:39.147Z,2.17
2023-03-06T21:59:05.682Z,2.17
2023-03-06T22:01:32.028Z,2.17
2023-03-06T22:03:59.452Z,2.15
2023-03-06T22:06:28.143Z,2.12
2023-03-06T22:08:58.673Z,2.09
2023-03-06T22:11:26.668Z,2.09
2023-03-06T22:13:53.318Z,2.09
2023-03-06T22:16:20.174Z,2.11
2023-03-06T22:18:47.759Z,2.13
2023-03-06T22:21:16.136Z,2.14
2023-03-06T22:23:42.991Z,2.15
2023-03-06T22:26:13.810Z,2.15
2023-03-06T22:28:41.422Z,2.14
2023-03-06T22:31:10.518Z,2.12
2023-03-06T22:33:37.133Z,2.09
2023-03-06T22:36:12.473Z,2.04
2023-03-06T22:38:41.728Z,2.02
2023-03-06T22:41:09.657Z,2.03
2023-03-06T22:43:36.834Z,2.05
2023-03-06T22:46:15.764Z,2.05
2023-03-06T22:48:43.462Z,2.03
2023-03-06T22:51:15.588Z,2.01
2023-03-06T22:53:42.544Z,1.97
2023-03-06T22:56:11.938Z,1.93
2023-03-06T22:58:39.771Z,1.93
2023-03-06T23:01:11.966Z,1.93
2023-03-06T23:03:40.676Z,1.95
2023-03-06T23:06:16.443Z,1.95
2023-03-06T23:08:46.027Z,1.93
2023-03-06T23:11:15.506Z,1.93
2023-03-06T23:13:42.205Z,1.93
2023-03-06T23:16:09.155Z,1.93
2023-03-06T23:18:37.023Z,1.90
2023-03-06T23:21:17.834Z,1.88
2023-03-06T23:23:47.741Z,1.88
2023-03-06T23:26:14.949Z,1.88
2023-03-06T23:28:42.187Z,1.91
2023-03-06T23:31:13.594Z,1.92
2023-03-06T23:33:40.522Z,1.93
2023-03-06T23:36:09.562Z,1.92
2023-03-06T23:38:37.074Z,1.90
2023-03-06T23:41:15.982Z,1.87
2023-03-06T23:43:42.763Z,1.87
2023-03-06T23:46:09.691Z,1.87
2023-03-06T23:48:38.658Z,1.89
2023-03-06T23:51:11.445Z,1.89
2023-03-06T23:53:38.075Z,1.90
2023-03-06T23:56:05.890Z,1.89
2023-03-06T23:58:32.911Z,1.88
